Cosco Kaohsiung — VREM3 — position and weather

sailwx.info

Track history (hours):
 
Tides and Currents Weather Stations Pressure Air Temp Water Temp Dewpoint Dewpoint Depression Visibility Wind Speed Wind Dir Waves Ship Positions

Cosco Kaohsiung

Last reported at 2017-Oct-30 13:56 UTC. Time now 2017-Nov-19 19:31 UTC.
Position N 01°19' E 103°18'.
Warning: this ship's position is 20 days out of date.

Length 349 m; draft 14.4 m.

Type: Ship (hazmat cat A). MMSI: 477136800.

Date/timePositionNaut miles runAvg speedWind from/ knotsBaromVisibWave heightAir tempDewpointWater temp
2017-Oct-30 13:56N 01°19' E 103°18'818.3
2017-Oct-30 13:29N 01°14' E 103°25'817.7
2017-Oct-30 13:00N 01°12' E 103°33'713.0
2017-Oct-30 12:30N 01°12' E 103°40'4 8.4
2017-Oct-30 12:00N 01°15' E 103°43'3 6.9
2017-Oct-30 11:30N 01°16' E 103°47'0 0.6
2017-Oct-30 10:54N 01°16' E 103°47'0 0.0
2017-Oct-30 10:30N 01°16' E 103°47'0 0.0
2017-Oct-30 09:57N 01°16' E 103°47'0 0.0
2017-Oct-30 09:30N 01°16' E 103°47'0 0.0
2017-Oct-30 09:00N 01°16' E 103°47'0 0.0
2017-Oct-30 08:27N 01°16' E 103°47'0 0.0
2017-Oct-30 08:00N 01°16' E 103°47'0 0.0
2017-Oct-30 07:27N 01°16' E 103°47'0 0.0
2017-Oct-30 07:00N 01°16' E 103°47'0 0.0
2017-Oct-30 06:27N 01°16' E 103°47'0 0.0
2017-Oct-30 06:00N 01°16' E 103°47'0 0.0
2017-Oct-30 05:30N 01°16' E 103°47'0 0.0
2017-Oct-30 04:57N 01°16' E 103°47'0 0.0
2017-Oct-30 04:30N 01°16' E 103°47'0 0.0
2017-Oct-30 04:00N 01°16' E 103°47'0 0.0
2017-Oct-30 03:30N 01°16' E 103°47'0 0.0
2017-Oct-30 03:00N 01°16' E 103°47'0 0.0
2017-Oct-30 02:30N 01°16' E 103°47'0 0.0
2017-Oct-30 02:00N 01°16' E 103°47'0 0.0
2017-Oct-30 01:00N 01°16' E 103°47'0 0.0
2017-Oct-30 00:30N 01°16' E 103°47'0 0.0
2017-Oct-30 00:00N 01°16' E 103°47'0 0.0
2017-Oct-29 23:30N 01°16' E 103°47'0 0.0
2017-Oct-29 23:00N 01°16' E 103°47'0 0.0
2017-Oct-29 22:30N 01°16' E 103°47'0 0.0
2017-Oct-29 22:00N 01°16' E 103°47'0 0.0
2017-Oct-29 21:30N 01°16' E 103°47'0 0.0
2017-Oct-29 21:00N 01°16' E 103°47'0 0.0
2017-Oct-29 20:21N 01°16' E 103°47'0 0.0
2017-Oct-29 20:00N 01°16' E 103°47'0 0.3
2017-Oct-29 19:30N 01°16' E 103°47'1 2.9
2017-Oct-29 19:00N 01°14' E 103°47'3 5.1
2017-Oct-29 18:30N 01°13' E 103°49'510.6
2017-Oct-29 18:00N 01°14' E 103°54'4 7.6
2017-Oct-29 17:30N 01°15' E 103°58'5 9.5
2017-Oct-29 17:00N 01°16' E 104°02'510.6
2017-Oct-29 16:30N 01°17' E 104°08'610.7
2017-Oct-29 15:58N 01°18' E 104°13'4 8.1
2017-Oct-29 15:30N 01°18' E 104°17'4 7.6
2017-Oct-29 14:59N 01°20' E 104°21'5 8.3
2017-Oct-29 14:26N 01°22' E 104°24'  
2017-Oct-26 10:22N 21°45' E 113°51'1616.7
2017-Oct-26 09:26N 22°00' E 113°52'715.1
2017-Oct-26 09:00N 22°07' E 113°51'612.8
2017-Oct-26 08:31N 22°13' E 113°49'815.7
2017-Oct-26 08:00N 22°21' E 113°47'714.5
2017-Oct-26 07:31N 22°28' E 113°45'714.5
2017-Oct-26 07:00N 22°35' E 113°43'4 7.2
2017-Oct-26 06:30N 22°38' E 113°41'0 0.6
2017-Oct-26 05:59N 22°38' E 113°41'0 0.0
2017-Oct-26 05:30N 22°38' E 113°41'0 0.0
2017-Oct-26 05:00N 22°38' E 113°41'0 0.0
2017-Oct-26 04:31N 22°38' E 113°41'0 0.0
2017-Oct-26 04:01N 22°38' E 113°41'0 0.0
2017-Oct-26 03:31N 22°38' E 113°41'0 0.0
2017-Oct-26 03:00N 22°38' E 113°41'0 0.0
2017-Oct-26 02:31N 22°38' E 113°41'0 0.0
2017-Oct-26 02:01N 22°38' E 113°41'0 0.0
2017-Oct-26 01:31N 22°38' E 113°41'0 0.0
2017-Oct-26 01:01N 22°38' E 113°41'0 0.0
2017-Oct-26 00:31N 22°38' E 113°41'0 0.0
2017-Oct-26 00:00N 22°38' E 113°41'0 0.0
2017-Oct-25 23:31N 22°38' E 113°41'0 0.1
2017-Oct-25 23:00N 22°38' E 113°41'0 0.0
2017-Oct-25 22:31N 22°38' E 113°41'0 0.0
2017-Oct-25 22:01N 22°38' E 113°41'0 0.0
2017-Oct-25 21:30N 22°38' E 113°41'0 0.0
2017-Oct-25 21:01N 22°38' E 113°41'0 0.0
2017-Oct-25 20:31N 22°38' E 113°41'0 0.0
2017-Oct-25 20:01N 22°38' E 113°41'0 0.0
2017-Oct-25 19:31N 22°38' E 113°41'0 0.0
2017-Oct-25 19:01N 22°38' E 113°41'0 0.9
2017-Oct-25 18:31N 22°38' E 113°42'4 7.3
2017-Oct-25 18:01N 22°34' E 113°43'5 9.2
2017-Oct-25 17:31N 22°30' E 113°45'5 9.3
2017-Oct-25 17:01N 22°25' E 113°46'510.5
2017-Oct-25 16:31N 22°21' E 113°48'510.9
2017-Oct-25 16:00N 22°15' E 113°49'510.2
2017-Oct-25 15:30N 22°10' E 113°50'9 7.9
2017-Oct-25 14:25N 22°02' E 113°52'4 7.3
2017-Oct-25 13:50N 21°59' E 113°55'612.4
2017-Oct-25 13:23N 21°59' E 114°01'1711.9
2017-Oct-25 11:56N 22°00' E 114°19'512.5
2017-Oct-25 11:31N 22°02' E 114°25'612.6
2017-Oct-25 11:01N 22°03' E 114°31'612.5
2017-Oct-25 10:31N 22°04' E 114°38'612.5
2017-Oct-25 09:59N 22°05' E 114°45'612.6
2017-Oct-25 09:30N 22°06' E 114°51'612.6
2017-Oct-25 09:00N 22°07' E 114°58'612.6
2017-Oct-25 08:30N 22°08' E 115°05'913.4
2017-Oct-25 07:52N 22°11' E 115°13'513.5
2017-Oct-25 07:30N 22°13' E 115°18'913.6
2017-Oct-25 06:52N 22°16' E 115°27'18415.0
2017-Oct-24 18:36N 23°52' E 118°17'315.6
2017-Oct-24 18:25N 23°54' E 118°20'615.5
2017-Oct-24 18:00N 23°58' E 118°25'815.4
2017-Oct-24 17:30N 24°03' E 118°31'815.3
2017-Oct-24 17:00N 24°08' E 118°38'  
2017-Oct-22 09:20N 31°06' E 122°22'412.5
2017-Oct-22 09:00N 31°06' E 122°18'714.4
2017-Oct-22 08:30N 31°11' E 122°11'713.1
2017-Oct-22 08:01N 31°14' E 122°04'715.0
2017-Oct-22 07:31N 31°15' E 121°56'714.7
2017-Oct-22 07:01N 31°18' E 121°47'713.5
2017-Oct-22 06:31N 31°21' E 121°40'5 9.8
2017-Oct-22 06:00N 31°22' E 121°35'0 0.2
2017-Oct-22 05:30N 31°22' E 121°35'0 0.0
2017-Oct-22 05:00N 31°22' E 121°35'0 0.0
2017-Oct-22 04:30N 31°22' E 121°35'0 0.0
2017-Oct-22 04:00N 31°22' E 121°35'0 0.0
2017-Oct-22 03:30N 31°22' E 121°35'0 0.0
2017-Oct-22 03:00N 31°22' E 121°35'0 0.0
2017-Oct-22 02:30N 31°22' E 121°35'0 0.0
2017-Oct-22 02:00N 31°22' E 121°35'0 0.0
2017-Oct-22 01:30N 31°22' E 121°35'0 0.0
2017-Oct-22 01:00N 31°22' E 121°35'0 0.0
2017-Oct-22 00:27N 31°22' E 121°35'0 0.0
2017-Oct-22 00:00N 31°22' E 121°35'0 0.0
2017-Oct-21 23:30N 31°22' E 121°35'0 0.0
2017-Oct-21 23:00N 31°22' E 121°35'0 0.0
2017-Oct-21 22:30N 31°22' E 121°35'0 0.0
2017-Oct-21 22:00N 31°22' E 121°35'0 0.0
2017-Oct-21 21:30N 31°22' E 121°35'0 0.0
2017-Oct-21 21:00N 31°22' E 121°35'0 0.0
2017-Oct-21 20:30N 31°22' E 121°35'0 0.0
2017-Oct-21 20:00N 31°22' E 121°35'0 0.0
2017-Oct-21 19:30N 31°22' E 121°35'0 0.0
2017-Oct-21 19:00N 31°22' E 121°35'0 0.0
2017-Oct-21 18:30N 31°22' E 121°35'0 0.0
2017-Oct-21 17:57N 31°22' E 121°35'0 0.0
2017-Oct-21 17:30N 31°22' E 121°35'0 0.0
2017-Oct-21 17:00N 31°22' E 121°35'0 0.0
2017-Oct-21 16:30N 31°22' E 121°35'0 0.0
2017-Oct-21 16:00N 31°22' E 121°35'0 0.0
2017-Oct-21 15:30N 31°22' E 121°35'0 0.0
2017-Oct-21 15:00N 31°22' E 121°35'0 0.0
2017-Oct-21 14:00N 31°22' E 121°35'0 0.0
2017-Oct-21 13:30N 31°22' E 121°35'0 0.0
2017-Oct-21 13:00N 31°22' E 121°35'0 0.0
2017-Oct-21 12:30N 31°22' E 121°35'0 0.0
2017-Oct-21 12:00N 31°22' E 121°35'0 0.0
2017-Oct-21 11:27N 31°22' E 121°35'0 0.0
2017-Oct-21 11:00N 31°22' E 121°35'0 0.0
2017-Oct-21 10:27N 31°22' E 121°35'0 0.0
2017-Oct-21 10:00N 31°22' E 121°35'0 0.0
2017-Oct-21 09:30N 31°22' E 121°35'0 0.0
2017-Oct-21 09:00N 31°22' E 121°35'0 0.0
2017-Oct-21 08:30N 31°22' E 121°35'0 0.0
2017-Oct-21 08:00N 31°22' E 121°35'0 0.0
2017-Oct-21 07:27N 31°22' E 121°35'0 0.0
2017-Oct-21 06:59N 31°22' E 121°35'0 0.0
2017-Oct-21 06:30N 31°22' E 121°35'0 0.0
2017-Oct-21 05:59N 31°22' E 121°35'0 0.0
2017-Oct-21 05:29N 31°22' E 121°35'0 0.1
2017-Oct-21 05:00N 31°22' E 121°35'1 2.8
2017-Oct-21 04:30N 31°23' E 121°34'3 5.9
2017-Oct-21 04:00N 31°22' E 121°37'4 9.0
2017-Oct-21 03:30N 31°20' E 121°41'510.8
2017-Oct-21 03:00N 31°18' E 121°47'612.0
2017-Oct-21 02:31N 31°16' E 121°54'713.8
2017-Oct-21 02:00N 31°14' E 122°02'611.7
2017-Oct-21 01:29N 31°12' E 122°08'510.9
2017-Oct-21 01:00N 31°09' E 122°13'611.2
2017-Oct-21 00:30N 31°06' E 122°19'612.3
2017-Oct-21 00:01N 31°06' E 122°26'814.9
2017-Oct-20 23:29N 31°06' E 122°35'  
Track history (hours):
 
Tides and Currents Weather Stations Pressure Air Temp Water Temp Dewpoint Dewpoint Depression Visibility Wind Speed Wind Dir Waves Ship Positions

Cosco Kaohsiung

Last reported at 2017-Oct-30 13:56 UTC. Time now 2017-Nov-19 19:31 UTC.
Position N 01°19' E 103°18'.
Warning: this ship's position is 20 days out of date.

Length 349 m; draft 14.4 m.

Type: Ship (hazmat cat A). MMSI: 477136800.

Date/timePositionNaut miles runAvg speedWind from/ knotsBaromVisibWave heightAir tempDewpointWater temp
2017-Oct-30 13:56N 01°19' E 103°18'818.3
2017-Oct-30 13:29N 01°14' E 103°25'817.7
2017-Oct-30 13:00N 01°12' E 103°33'713.0
2017-Oct-30 12:30N 01°12' E 103°40'4 8.4
2017-Oct-30 12:00N 01°15' E 103°43'3 6.9
2017-Oct-30 11:30N 01°16' E 103°47'0 0.6
2017-Oct-30 10:54N 01°16' E 103°47'0 0.0
2017-Oct-30 10:30N 01°16' E 103°47'0 0.0
2017-Oct-30 09:57N 01°16' E 103°47'0 0.0
2017-Oct-30 09:30N 01°16' E 103°47'0 0.0
2017-Oct-30 09:00N 01°16' E 103°47'0 0.0
2017-Oct-30 08:27N 01°16' E 103°47'0 0.0
2017-Oct-30 08:00N 01°16' E 103°47'0 0.0
2017-Oct-30 07:27N 01°16' E 103°47'0 0.0
2017-Oct-30 07:00N 01°16' E 103°47'0 0.0
2017-Oct-30 06:27N 01°16' E 103°47'0 0.0
2017-Oct-30 06:00N 01°16' E 103°47'0 0.0
2017-Oct-30 05:30N 01°16' E 103°47'0 0.0
2017-Oct-30 04:57N 01°16' E 103°47'0 0.0
2017-Oct-30 04:30N 01°16' E 103°47'0 0.0
2017-Oct-30 04:00N 01°16' E 103°47'0 0.0
2017-Oct-30 03:30N 01°16' E 103°47'0 0.0
2017-Oct-30 03:00N 01°16' E 103°47'0 0.0
2017-Oct-30 02:30N 01°16' E 103°47'0 0.0
2017-Oct-30 02:00N 01°16' E 103°47'0 0.0
2017-Oct-30 01:00N 01°16' E 103°47'0 0.0
2017-Oct-30 00:30N 01°16' E 103°47'0 0.0
2017-Oct-30 00:00N 01°16' E 103°47'0 0.0
2017-Oct-29 23:30N 01°16' E 103°47'0 0.0
2017-Oct-29 23:00N 01°16' E 103°47'0 0.0
2017-Oct-29 22:30N 01°16' E 103°47'0 0.0
2017-Oct-29 22:00N 01°16' E 103°47'0 0.0
2017-Oct-29 21:30N 01°16' E 103°47'0 0.0
2017-Oct-29 21:00N 01°16' E 103°47'0 0.0
2017-Oct-29 20:21N 01°16' E 103°47'0 0.0
2017-Oct-29 20:00N 01°16' E 103°47'0 0.3
2017-Oct-29 19:30N 01°16' E 103°47'1 2.9
2017-Oct-29 19:00N 01°14' E 103°47'3 5.1
2017-Oct-29 18:30N 01°13' E 103°49'510.6
2017-Oct-29 18:00N 01°14' E 103°54'4 7.6
2017-Oct-29 17:30N 01°15' E 103°58'5 9.5
2017-Oct-29 17:00N 01°16' E 104°02'510.6
2017-Oct-29 16:30N 01°17' E 104°08'610.7
2017-Oct-29 15:58N 01°18' E 104°13'4 8.1
2017-Oct-29 15:30N 01°18' E 104°17'4 7.6
2017-Oct-29 14:59N 01°20' E 104°21'5 8.3
2017-Oct-29 14:26N 01°22' E 104°24'  
2017-Oct-26 10:22N 21°45' E 113°51'1616.7
2017-Oct-26 09:26N 22°00' E 113°52'715.1
2017-Oct-26 09:00N 22°07' E 113°51'612.8
2017-Oct-26 08:31N 22°13' E 113°49'815.7
2017-Oct-26 08:00N 22°21' E 113°47'714.5
2017-Oct-26 07:31N 22°28' E 113°45'714.5
2017-Oct-26 07:00N 22°35' E 113°43'4 7.2
2017-Oct-26 06:30N 22°38' E 113°41'0 0.6
2017-Oct-26 05:59N 22°38' E 113°41'0 0.0
2017-Oct-26 05:30N 22°38' E 113°41'0 0.0
2017-Oct-26 05:00N 22°38' E 113°41'0 0.0
2017-Oct-26 04:31N 22°38' E 113°41'0 0.0
2017-Oct-26 04:01N 22°38' E 113°41'0 0.0
2017-Oct-26 03:31N 22°38' E 113°41'0 0.0
2017-Oct-26 03:00N 22°38' E 113°41'0 0.0
2017-Oct-26 02:31N 22°38' E 113°41'0 0.0
2017-Oct-26 02:01N 22°38' E 113°41'0 0.0
2017-Oct-26 01:31N 22°38' E 113°41'0 0.0
2017-Oct-26 01:01N 22°38' E 113°41'0 0.0
2017-Oct-26 00:31N 22°38' E 113°41'0 0.0
2017-Oct-26 00:00N 22°38' E 113°41'0 0.0
2017-Oct-25 23:31N 22°38' E 113°41'0 0.1
2017-Oct-25 23:00N 22°38' E 113°41'0 0.0
2017-Oct-25 22:31N 22°38' E 113°41'0 0.0
2017-Oct-25 22:01N 22°38' E 113°41'0 0.0
2017-Oct-25 21:30N 22°38' E 113°41'0 0.0
2017-Oct-25 21:01N 22°38' E 113°41'0 0.0
2017-Oct-25 20:31N 22°38' E 113°41'0 0.0
2017-Oct-25 20:01N 22°38' E 113°41'0 0.0
2017-Oct-25 19:31N 22°38' E 113°41'0 0.0
2017-Oct-25 19:01N 22°38' E 113°41'0 0.9
2017-Oct-25 18:31N 22°38' E 113°42'4 7.3
2017-Oct-25 18:01N 22°34' E 113°43'5 9.2
2017-Oct-25 17:31N 22°30' E 113°45'5 9.3
2017-Oct-25 17:01N 22°25' E 113°46'510.5
2017-Oct-25 16:31N 22°21' E 113°48'510.9
2017-Oct-25 16:00N 22°15' E 113°49'510.2
2017-Oct-25 15:30N 22°10' E 113°50'9 7.9
2017-Oct-25 14:25N 22°02' E 113°52'4 7.3
2017-Oct-25 13:50N 21°59' E 113°55'612.4
2017-Oct-25 13:23N 21°59' E 114°01'1711.9
2017-Oct-25 11:56N 22°00' E 114°19'512.5
2017-Oct-25 11:31N 22°02' E 114°25'612.6
2017-Oct-25 11:01N 22°03' E 114°31'612.5
2017-Oct-25 10:31N 22°04' E 114°38'612.5
2017-Oct-25 09:59N 22°05' E 114°45'612.6
2017-Oct-25 09:30N 22°06' E 114°51'612.6
2017-Oct-25 09:00N 22°07' E 114°58'612.6
2017-Oct-25 08:30N 22°08' E 115°05'913.4
2017-Oct-25 07:52N 22°11' E 115°13'513.5
2017-Oct-25 07:30N 22°13' E 115°18'913.6
2017-Oct-25 06:52N 22°16' E 115°27'18415.0
2017-Oct-24 18:36N 23°52' E 118°17'315.6
2017-Oct-24 18:25N 23°54' E 118°20'615.5
2017-Oct-24 18:00N 23°58' E 118°25'815.4
2017-Oct-24 17:30N 24°03' E 118°31'815.3
2017-Oct-24 17:00N 24°08' E 118°38'  
2017-Oct-22 09:20N 31°06' E 122°22'412.5
2017-Oct-22 09:00N 31°06' E 122°18'714.4
2017-Oct-22 08:30N 31°11' E 122°11'713.1
2017-Oct-22 08:01N 31°14' E 122°04'715.0
2017-Oct-22 07:31N 31°15' E 121°56'714.7
2017-Oct-22 07:01N 31°18' E 121°47'713.5
2017-Oct-22 06:31N 31°21' E 121°40'5 9.8
2017-Oct-22 06:00N 31°22' E 121°35'0 0.2
2017-Oct-22 05:30N 31°22' E 121°35'0 0.0
2017-Oct-22 05:00N 31°22' E 121°35'0 0.0
2017-Oct-22 04:30N 31°22' E 121°35'0 0.0
2017-Oct-22 04:00N 31°22' E 121°35'0 0.0
2017-Oct-22 03:30N 31°22' E 121°35'0 0.0
2017-Oct-22 03:00N 31°22' E 121°35'0 0.0
2017-Oct-22 02:30N 31°22' E 121°35'0 0.0
2017-Oct-22 02:00N 31°22' E 121°35'0 0.0
2017-Oct-22 01:30N 31°22' E 121°35'0 0.0
2017-Oct-22 01:00N 31°22' E 121°35'0 0.0
2017-Oct-22 00:27N 31°22' E 121°35'0 0.0
2017-Oct-22 00:00N 31°22' E 121°35'0 0.0
2017-Oct-21 23:30N 31°22' E 121°35'0 0.0
2017-Oct-21 23:00N 31°22' E 121°35'0 0.0
2017-Oct-21 22:30N 31°22' E 121°35'0 0.0
2017-Oct-21 22:00N 31°22' E 121°35'0 0.0
2017-Oct-21 21:30N 31°22' E 121°35'0 0.0
2017-Oct-21 21:00N 31°22' E 121°35'0 0.0
2017-Oct-21 20:30N 31°22' E 121°35'0 0.0
2017-Oct-21 20:00N 31°22' E 121°35'0 0.0
2017-Oct-21 19:30N 31°22' E 121°35'0 0.0
2017-Oct-21 19:00N 31°22' E 121°35'0 0.0
2017-Oct-21 18:30N 31°22' E 121°35'0 0.0
2017-Oct-21 17:57N 31°22' E 121°35'0 0.0
2017-Oct-21 17:30N 31°22' E 121°35'0 0.0
2017-Oct-21 17:00N 31°22' E 121°35'0 0.0
2017-Oct-21 16:30N 31°22' E 121°35'0 0.0
2017-Oct-21 16:00N 31°22' E 121°35'0 0.0
2017-Oct-21 15:30N 31°22' E 121°35'0 0.0
2017-Oct-21 15:00N 31°22' E 121°35'0 0.0
2017-Oct-21 14:00N 31°22' E 121°35'0 0.0
2017-Oct-21 13:30N 31°22' E 121°35'0 0.0
2017-Oct-21 13:00N 31°22' E 121°35'0 0.0
2017-Oct-21 12:30N 31°22' E 121°35'0 0.0
2017-Oct-21 12:00N 31°22' E 121°35'0 0.0
2017-Oct-21 11:27N 31°22' E 121°35'0 0.0
2017-Oct-21 11:00N 31°22' E 121°35'0 0.0
2017-Oct-21 10:27N 31°22' E 121°35'0 0.0
2017-Oct-21 10:00N 31°22' E 121°35'0 0.0
2017-Oct-21 09:30N 31°22' E 121°35'0 0.0
2017-Oct-21 09:00N 31°22' E 121°35'0 0.0
2017-Oct-21 08:30N 31°22' E 121°35'0 0.0
2017-Oct-21 08:00N 31°22' E 121°35'0 0.0
2017-Oct-21 07:27N 31°22' E 121°35'0 0.0
2017-Oct-21 06:59N 31°22' E 121°35'0 0.0
2017-Oct-21 06:30N 31°22' E 121°35'0 0.0
2017-Oct-21 05:59N 31°22' E 121°35'0 0.0
2017-Oct-21 05:29N 31°22' E 121°35'0 0.1
2017-Oct-21 05:00N 31°22' E 121°35'1 2.8
2017-Oct-21 04:30N 31°23' E 121°34'3 5.9
2017-Oct-21 04:00N 31°22' E 121°37'4 9.0
2017-Oct-21 03:30N 31°20' E 121°41'510.8
2017-Oct-21 03:00N 31°18' E 121°47'612.0
2017-Oct-21 02:31N 31°16' E 121°54'713.8
2017-Oct-21 02:00N 31°14' E 122°02'611.7
2017-Oct-21 01:29N 31°12' E 122°08'510.9
2017-Oct-21 01:00N 31°09' E 122°13'611.2
2017-Oct-21 00:30N 31°06' E 122°19'612.3
2017-Oct-21 00:01N 31°06' E 122°26'814.9
2017-Oct-20 23:29N 31°06' E 122°35'  

Dump ship's entire track history